createdAt,value
2023-03-27T00:02:25.882Z,17.81
2023-03-27T00:04:52.438Z,17.82
2023-03-27T00:07:18.926Z,17.82
2023-03-27T00:09:45.532Z,17.83
2023-03-27T00:12:12.095Z,17.82
2023-03-27T00:14:39.877Z,17.80
2023-03-27T00:17:06.385Z,17.79
2023-03-27T00:19:32.899Z,17.79
2023-03-27T00:21:59.351Z,17.82
2023-03-27T00:24:25.797Z,17.81
2023-03-27T00:26:52.250Z,17.79
2023-03-27T00:29:18.699Z,17.79
2023-03-27T00:31:46.493Z,17.81
2023-03-27T00:34:13.156Z,17.80
2023-03-27T00:36:39.597Z,17.80
2023-03-27T00:39:06.069Z,17.79
2023-03-27T00:41:32.639Z,17.80
2023-03-27T00:43:59.213Z,17.80
2023-03-27T00:46:33.555Z,17.83
2023-03-27T00:49:05.620Z,17.83
2023-03-27T00:51:34.796Z,17.81
2023-03-27T00:54:01.339Z,17.80
2023-03-27T00:56:28.088Z,17.80
2023-03-27T00:58:59.674Z,17.80
2023-03-27T01:01:28.370Z,17.81
2023-03-27T01:03:58.286Z,17.79
2023-03-27T01:06:27.327Z,17.79
2023-03-27T01:08:53.920Z,17.83
2023-03-27T01:11:32.598Z,17.80
2023-03-27T01:14:12.190Z,17.78
2023-03-27T01:16:47.153Z,17.76
2023-03-27T01:19:40.380Z,17.77
2023-03-27T01:22:37.774Z,17.77
2023-03-27T01:25:21.794Z,17.79
2023-03-27T01:28:11.766Z,17.80
2023-03-27T01:30:43.250Z,17.77
2023-03-27T01:33:27.025Z,17.75
2023-03-27T01:36:10.041Z,17.78
2023-03-27T01:39:03.090Z,17.76
2023-03-27T01:41:34.935Z,17.78
2023-03-27T01:44:09.405Z,17.76
2023-03-27T01:46:43.491Z,17.77
2023-03-27T01:49:14.331Z,17.73
2023-03-27T01:51:46.825Z,17.72
2023-03-27T01:54:19.662Z,17.71
2023-03-27T01:56:51.904Z,17.70
2023-03-27T01:59:20.909Z,17.79
2023-03-27T02:01:54.263Z,17.95
2023-03-27T02:04:25.510Z,18.06
2023-03-27T02:06:56.957Z,18.08
2023-03-27T02:09:27.730Z,18.15
2023-03-27T02:12:02.899Z,18.23
2023-03-27T02:14:35.559Z,18.29
2023-03-27T02:17:07.341Z,18.36
2023-03-27T02:19:37.219Z,18.41
2023-03-27T02:22:03.717Z,18.50
2023-03-27T02:24:30.177Z,18.50
2023-03-27T02:27:00.008Z,18.57
2023-03-27T02:29:41.079Z,18.62
2023-03-27T02:32:21.333Z,18.65
2023-03-27T02:35:05.806Z,18.69
2023-03-27T02:37:44.191Z,18.74
2023-03-27T02:40:19.534Z,18.77
2023-03-27T02:43:00.878Z,18.84
2023-03-27T02:45:36.961Z,18.82
2023-03-27T02:48:09.983Z,18.87
2023-03-27T02:50:40.623Z,18.87
2023-03-27T02:53:09.291Z,18.90
2023-03-27T02:55:40.426Z,18.94
2023-03-27T02:58:11.410Z,18.97
2023-03-27T03:00:41.809Z,18.99
2023-03-27T03:03:13.690Z,19.02
2023-03-27T03:05:40.406Z,19.03
2023-03-27T03:08:07.080Z,19.09
2023-03-27T03:10:33.672Z,19.08
2023-03-27T03:13:00.196Z,19.10
2023-03-27T03:15:28.169Z,19.13
2023-03-27T03:17:54.777Z,19.14
2023-03-27T03:20:21.485Z,19.19
2023-03-27T03:22:47.983Z,19.19
2023-03-27T03:25:14.597Z,19.21
2023-03-27T03:27:41.036Z,19.23
2023-03-27T03:30:08.420Z,19.22
2023-03-27T03:32:36.297Z,19.25
2023-03-27T03:35:02.803Z,19.26
2023-03-27T03:37:29.281Z,19.30
2023-03-27T03:39:55.766Z,19.31
2023-03-27T03:42:24.285Z,19.35
2023-03-27T03:44:51.004Z,19.33
2023-03-27T03:47:17.773Z,19.37
2023-03-27T03:49:45.537Z,19.37
2023-03-27T03:52:12.148Z,19.38
2023-03-27T03:54:38.754Z,19.41
2023-03-27T03:57:05.359Z,19.44
2023-03-27T03:59:32.021Z,19.45
2023-03-27T04:01:58.521Z,19.47
2023-03-27T04:04:24.987Z,19.49
2023-03-27T04:06:52.723Z,19.48
2023-03-27T04:09:19.225Z,19.49
2023-03-27T04:11:45.681Z,19.50
2023-03-27T04:14:12.145Z,19.53
2023-03-27T04:16:38.601Z,19.57
2023-03-27T04:19:05.071Z,19.62
2023-03-27T04:21:31.580Z,19.62
2023-03-27T04:23:59.449Z,19.64
2023-03-27T04:26:25.952Z,19.66
2023-03-27T04:28:52.621Z,19.67
2023-03-27T04:31:19.112Z,19.61
2023-03-27T04:33:45.606Z,19.60
2023-03-27T04:36:13.358Z,19.61
2023-03-27T04:38:40.368Z,19.64
2023-03-27T04:41:08.653Z,19.63
2023-03-27T04:43:35.585Z,19.65
2023-03-27T04:46:02.037Z,19.65
2023-03-27T04:48:28.506Z,19.67
2023-03-27T04:50:55.344Z,19.68
2023-03-27T04:53:21.926Z,19.71
2023-03-27T04:55:49.310Z,19.69
2023-03-27T04:58:17.305Z,19.70
2023-03-27T05:00:44.658Z,19.71
2023-03-27T05:03:11.225Z,19.73
2023-03-27T05:05:37.734Z,19.75
2023-03-27T05:08:04.463Z,19.75
2023-03-27T05:10:30.937Z,19.76
2023-03-27T05:12:58.481Z,19.77
2023-03-27T05:15:26.366Z,19.79
2023-03-27T05:17:52.897Z,19.79
2023-03-27T05:20:20.267Z,19.23
2023-03-27T05:22:46.742Z,18.83
2023-03-27T05:25:13.241Z,18.52
2023-03-27T05:27:44.792Z,18.70
2023-03-27T05:30:12.235Z,19.32
2023-03-27T05:32:40.036Z,19.57
2023-03-27T05:35:06.839Z,19.65
2023-03-27T05:37:33.290Z,19.71
2023-03-27T05:39:59.752Z,19.80
2023-03-27T05:42:26.205Z,19.87
2023-03-27T05:44:52.723Z,19.91
2023-03-27T05:47:19.162Z,19.93
2023-03-27T05:49:46.965Z,19.95
2023-03-27T05:52:13.386Z,19.96
2023-03-27T05:54:39.822Z,19.97
2023-03-27T05:57:06.327Z,19.97
2023-03-27T05:59:33.049Z,19.98
2023-03-27T06:01:59.601Z,19.97
2023-03-27T06:04:26.145Z,19.98
2023-03-27T06:06:53.930Z,19.99
2023-03-27T06:09:20.431Z,20.00
2023-03-27T06:11:47.028Z,19.99
2023-03-27T06:14:13.528Z,19.98
2023-03-27T06:16:40.077Z,20.01
2023-03-27T06:19:06.572Z,20.03
2023-03-27T06:21:33.051Z,20.05
2023-03-27T06:24:00.860Z,20.05
2023-03-27T06:26:27.388Z,20.08
2023-03-27T06:28:53.894Z,20.08
2023-03-27T06:31:20.598Z,20.06
2023-03-27T06:33:47.473Z,20.09
2023-03-27T06:36:13.981Z,20.07
2023-03-27T06:38:40.567Z,20.03
2023-03-27T06:41:08.404Z,20.07
2023-03-27T06:43:34.889Z,20.10
2023-03-27T06:46:01.553Z,20.07
2023-03-27T06:48:28.175Z,20.12
2023-03-27T06:50:54.796Z,20.05
2023-03-27T06:53:27.136Z,20.02
2023-03-27T06:55:55.195Z,20.14
2023-03-27T06:58:23.296Z,20.18
2023-03-27T07:00:50.288Z,20.26
2023-03-27T07:03:18.303Z,20.20
2023-03-27T07:05:45.278Z,20.33
2023-03-27T07:10:43.727Z,20.21
2023-03-27T07:13:10.567Z,20.28
2023-03-27T07:15:38.609Z,20.35
2023-03-27T07:18:06.898Z,20.38
2023-03-27T07:20:34.778Z,20.41
2023-03-27T07:23:02.200Z,20.42
2023-03-27T07:25:30.501Z,20.44
2023-03-27T07:27:58.357Z,20.43
2023-03-27T07:30:25.000Z,20.43
2023-03-27T07:32:52.910Z,20.47
2023-03-27T07:35:19.535Z,20.49
2023-03-27T07:37:46.061Z,20.44
2023-03-27T07:40:12.839Z,20.46
2023-03-27T07:42:42.488Z,20.53
2023-03-27T07:45:10.049Z,20.55
2023-03-27T07:47:36.545Z,20.32
2023-03-27T07:50:04.747Z,20.14
2023-03-27T07:52:31.386Z,20.03
2023-03-27T07:54:57.802Z,20.22
2023-03-27T07:57:24.393Z,20.42
2023-03-27T07:59:50.962Z,20.46
2023-03-27T08:02:17.439Z,20.29
2023-03-27T08:04:43.932Z,20.46
2023-03-27T08:07:11.912Z,20.47
2023-03-27T08:09:38.587Z,20.58
2023-03-27T08:12:05.337Z,20.54
2023-03-27T08:14:31.822Z,20.57
2023-03-27T08:17:12.451Z,20.55
2023-03-27T08:19:42.598Z,20.43
2023-03-27T08:22:09.227Z,20.55
2023-03-27T08:24:37.194Z,19.82
2023-03-27T08:27:04.080Z,19.81
2023-03-27T08:29:30.566Z,20.25
2023-03-27T08:31:57.630Z,20.40
2023-03-27T08:34:24.077Z,20.43
2023-03-27T08:36:50.809Z,20.38
2023-03-27T08:39:17.458Z,20.37
2023-03-27T08:41:51.554Z,20.40
2023-03-27T08:44:21.197Z,19.95
2023-03-27T08:46:52.901Z,19.72
2023-03-27T08:49:21.152Z,19.97
2023-03-27T08:51:52.742Z,19.56
2023-03-27T08:54:22.214Z,19.11
2023-03-27T08:56:50.472Z,18.90
2023-03-27T08:59:20.153Z,18.98
2023-03-27T09:01:54.234Z,18.98
2023-03-27T09:04:33.069Z,18.97
2023-03-27T09:07:05.208Z,18.89
2023-03-27T09:09:39.318Z,18.83
2023-03-27T09:12:18.868Z,18.77
2023-03-27T09:14:50.160Z,18.75
2023-03-27T09:17:23.259Z,18.72
2023-03-27T09:19:55.230Z,18.77
2023-03-27T09:22:25.254Z,18.87
2023-03-27T09:24:54.655Z,18.87
2023-03-27T09:27:27.001Z,19.20
2023-03-27T09:30:05.453Z,19.30
2023-03-27T09:32:33.265Z,20.31
2023-03-27T09:35:00.844Z,20.70
2023-03-27T09:37:27.649Z,20.19
2023-03-27T09:39:55.289Z,20.32
2023-03-27T09:42:28.455Z,20.70
2023-03-27T09:44:58.589Z,20.88
2023-03-27T09:47:30.957Z,21.00
2023-03-27T09:50:11.953Z,21.07
2023-03-27T09:52:39.968Z,21.14
2023-03-27T09:55:23.180Z,21.19
2023-03-27T09:57:53.003Z,21.08
2023-03-27T10:00:27.250Z,20.43
2023-03-27T10:03:00.389Z,20.58
2023-03-27T10:05:27.156Z,20.88
2023-03-27T10:07:53.697Z,21.01
2023-03-27T10:10:21.342Z,21.03
2023-03-27T10:12:53.883Z,21.08
2023-03-27T10:15:31.714Z,21.11
2023-03-27T10:17:59.422Z,21.11
2023-03-27T10:20:26.213Z,21.13
2023-03-27T10:22:54.905Z,21.10
2023-03-27T10:25:26.867Z,20.68
2023-03-27T10:28:06.380Z,20.38
2023-03-27T10:30:35.178Z,19.70
2023-03-27T10:33:02.141Z,19.41
2023-03-27T10:35:33.528Z,19.28
2023-03-27T10:38:03.806Z,19.27
2023-03-27T10:40:33.013Z,19.06
2023-03-27T10:43:04.041Z,18.97
2023-03-27T10:45:32.422Z,18.94
2023-03-27T10:48:01.425Z,18.86
2023-03-27T10:50:32.377Z,18.78
2023-03-27T10:53:05.661Z,18.60
2023-03-27T10:55:40.073Z,18.63
2023-03-27T10:58:21.875Z,18.71
2023-03-27T11:00:55.587Z,18.73
2023-03-27T11:03:28.039Z,18.72
2023-03-27T11:05:54.704Z,18.70
2023-03-27T11:08:27.497Z,18.72
2023-03-27T11:10:57.683Z,18.66
2023-03-27T11:13:28.564Z,18.68
2023-03-27T11:16:13.665Z,18.65
2023-03-27T11:18:45.692Z,18.66
2023-03-27T11:21:14.642Z,18.63
2023-03-27T11:23:47.136Z,18.65
2023-03-27T11:26:14.620Z,18.80
2023-03-27T11:28:46.615Z,18.65
2023-03-27T11:31:19.022Z,18.51
2023-03-27T11:33:51.252Z,18.58
2023-03-27T11:36:29.243Z,18.70
2023-03-27T11:39:07.290Z,18.60
2023-03-27T11:41:33.854Z,18.60
2023-03-27T11:44:01.818Z,18.72
2023-03-27T11:46:47.782Z,18.58
2023-03-27T11:49:30.223Z,18.51
2023-03-27T11:52:12.041Z,18.47
2023-03-27T11:54:54.345Z,18.44
2023-03-27T11:57:23.413Z,18.50
2023-03-27T11:59:59.276Z,18.47
2023-03-27T12:02:26.622Z,18.45
2023-03-27T12:04:52.879Z,18.43
2023-03-27T12:07:37.170Z,18.42
2023-03-27T12:10:28.385Z,18.42
2023-03-27T12:13:18.182Z,18.43
2023-03-27T12:16:05.395Z,18.43
2023-03-27T12:18:51.194Z,18.42
2023-03-27T12:21:38.952Z,18.39
2023-03-27T12:24:19.910Z,18.66
2023-03-27T12:27:02.824Z,19.66
2023-03-27T12:29:45.109Z,20.16
2023-03-27T12:32:25.366Z,20.30
2023-03-27T12:34:54.308Z,20.42
2023-03-27T12:37:24.714Z,20.22
2023-03-27T12:39:54.542Z,19.17
2023-03-27T12:42:44.047Z,18.84
2023-03-27T12:45:17.170Z,18.95
2023-03-27T12:47:45.241Z,18.75
2023-03-27T12:50:19.510Z,18.68
2023-03-27T12:52:46.537Z,18.96
2023-03-27T12:55:33.106Z,20.09
2023-03-27T12:58:01.664Z,20.38
2023-03-27T13:00:28.913Z,20.56
2023-03-27T13:03:21.063Z,20.62
2023-03-27T13:06:05.944Z,20.69
2023-03-27T13:08:49.284Z,20.66
2023-03-27T13:11:35.829Z,20.17
2023-03-27T13:14:20.429Z,20.34
2023-03-27T13:17:02.483Z,20.61
2023-03-27T13:19:40.237Z,20.68
2023-03-27T13:22:20.117Z,20.66
2023-03-27T13:25:02.136Z,20.54
2023-03-27T13:27:45.541Z,20.68
2023-03-27T13:30:41.735Z,20.75
2023-03-27T13:33:14.667Z,20.22
2023-03-27T13:35:53.203Z,19.98
2023-03-27T13:38:44.716Z,20.25
2023-03-27T13:41:31.157Z,20.46
2023-03-27T13:44:00.412Z,20.52
2023-03-27T13:46:27.437Z,20.23
2023-03-27T13:49:06.494Z,19.55
2023-03-27T13:51:51.216Z,19.25
2023-03-27T13:54:34.516Z,19.11
2023-03-27T13:57:11.650Z,19.05
2023-03-27T13:59:57.618Z,19.04
2023-03-27T14:02:44.648Z,19.06
2023-03-27T14:05:28.129Z,19.06
2023-03-27T14:08:08.758Z,19.02
2023-03-27T14:10:56.706Z,19.01
2023-03-27T14:13:35.136Z,18.99
2023-03-27T14:16:34.543Z,19.00
2023-03-27T14:19:17.194Z,18.96
2023-03-27T14:21:52.005Z,18.94
2023-03-27T14:24:27.273Z,19.04
2023-03-27T14:26:55.681Z,18.98
2023-03-27T14:29:22.264Z,19.01
2023-03-27T14:31:50.338Z,18.90
2023-03-27T14:34:20.834Z,18.96
2023-03-27T14:36:47.737Z,19.14
2023-03-27T14:39:16.731Z,19.11
2023-03-27T14:41:47.802Z,19.97
2023-03-27T14:44:14.351Z,20.00
2023-03-27T14:46:43.653Z,20.48
2023-03-27T14:49:15.270Z,20.78
2023-03-27T14:51:42.016Z,20.84
2023-03-27T14:54:14.991Z,20.90
2023-03-27T14:56:44.793Z,20.95
2023-03-27T14:59:14.479Z,21.02
2023-03-27T15:01:41.400Z,20.82
2023-03-27T15:04:08.582Z,20.39
2023-03-27T15:06:36.735Z,20.27
2023-03-27T15:09:04.695Z,20.17
2023-03-27T15:11:33.477Z,20.18
2023-03-27T15:13:59.976Z,20.14
2023-03-27T15:16:29.559Z,20.11
2023-03-27T15:19:00.456Z,20.09
2023-03-27T15:21:33.732Z,20.05
2023-03-27T15:24:06.667Z,20.02
2023-03-27T15:26:35.174Z,20.01
2023-03-27T15:29:05.804Z,19.89
2023-03-27T15:31:33.827Z,19.95
2023-03-27T15:34:03.824Z,19.94
2023-03-27T15:36:33.278Z,19.91
2023-03-27T15:39:02.309Z,19.93
2023-03-27T15:41:41.665Z,19.90
2023-03-27T15:44:13.037Z,19.90
2023-03-27T15:46:50.637Z,19.88
2023-03-27T15:49:23.741Z,19.85
2023-03-27T15:51:50.495Z,19.84
2023-03-27T15:54:29.285Z,19.82
2023-03-27T15:57:09.979Z,19.82
2023-03-27T15:59:51.771Z,19.74
2023-03-27T16:02:22.124Z,19.72
2023-03-27T16:04:52.370Z,19.73
2023-03-27T16:07:22.681Z,19.73
2023-03-27T16:09:53.829Z,19.73
2023-03-27T16:12:25.139Z,19.72
2023-03-27T16:14:54.607Z,19.70
2023-03-27T16:17:30.115Z,19.69
2023-03-27T16:19:58.998Z,19.68
2023-03-27T16:22:27.794Z,19.66
2023-03-27T16:24:59.599Z,19.67
2023-03-27T16:27:28.466Z,19.65
2023-03-27T16:29:54.922Z,19.64
2023-03-27T16:32:22.638Z,19.63
2023-03-27T16:34:49.666Z,19.59
2023-03-27T16:37:16.356Z,19.59
2023-03-27T16:39:43.159Z,19.55
2023-03-27T16:42:14.490Z,19.54
2023-03-27T16:44:41.163Z,19.52
2023-03-27T16:47:07.828Z,19.53
2023-03-27T16:49:34.522Z,19.53
2023-03-27T16:52:01.122Z,19.50
2023-03-27T16:54:29.753Z,19.49
2023-03-27T16:56:56.411Z,19.52
2023-03-27T16:59:24.675Z,19.50
2023-03-27T17:01:51.222Z,19.51
2023-03-27T17:04:17.725Z,19.49
2023-03-27T17:06:44.190Z,19.47
2023-03-27T17:09:10.984Z,19.46
2023-03-27T17:11:37.511Z,19.47
2023-03-27T17:14:04.016Z,19.43
2023-03-27T17:16:32.470Z,19.45
2023-03-27T17:18:58.996Z,19.42
2023-03-27T17:21:25.714Z,19.40
2023-03-27T17:23:52.356Z,19.40
2023-03-27T17:26:22.410Z,19.40
2023-03-27T17:28:49.022Z,19.38
2023-03-27T17:31:15.993Z,19.38
2023-03-27T17:33:43.832Z,19.36
2023-03-27T17:36:13.517Z,19.38
2023-03-27T17:38:40.366Z,19.34
2023-03-27T17:41:07.450Z,19.36
2023-03-27T17:43:34.268Z,19.34
2023-03-27T17:46:02.392Z,19.36
2023-03-27T17:48:31.818Z,19.28
2023-03-27T17:51:08.655Z,19.29
2023-03-27T17:53:36.460Z,19.31
2023-03-27T17:56:03.576Z,19.34
2023-03-27T17:58:30.087Z,19.31
2023-03-27T18:00:57.191Z,19.32
2023-03-27T18:03:24.087Z,19.31
2023-03-27T18:05:50.657Z,19.30
2023-03-27T18:08:19.060Z,19.29
2023-03-27T18:10:47.396Z,19.27
2023-03-27T18:13:13.947Z,19.28
2023-03-27T18:15:40.640Z,19.30
2023-03-27T18:18:07.817Z,19.26
2023-03-27T18:20:34.587Z,19.26
2023-03-27T18:23:01.118Z,19.25
2023-03-27T18:25:29.035Z,19.24
2023-03-27T18:27:55.581Z,19.27
2023-03-27T18:30:22.091Z,19.24
2023-03-27T18:32:48.754Z,19.23
2023-03-27T18:35:18.056Z,19.20
2023-03-27T18:37:45.854Z,19.23
2023-03-27T18:40:14.876Z,19.24
2023-03-27T18:42:42.818Z,19.19
2023-03-27T18:45:10.502Z,19.18
2023-03-27T18:47:37.472Z,19.15
2023-03-27T18:50:05.623Z,19.19
2023-03-27T18:52:32.776Z,19.15
2023-03-27T18:54:59.311Z,19.16
2023-03-27T18:57:25.841Z,19.17
2023-03-27T18:59:53.825Z,19.14
2023-03-27T19:02:20.664Z,19.13
2023-03-27T19:04:47.759Z,19.14
2023-03-27T19:07:14.867Z,19.13
2023-03-27T19:09:41.949Z,19.14
2023-03-27T19:12:08.626Z,19.11
2023-03-27T19:14:35.131Z,19.11
2023-03-27T19:17:03.083Z,19.11
2023-03-27T19:19:29.676Z,19.07
2023-03-27T19:21:56.266Z,19.07
2023-03-27T19:24:22.770Z,19.07
2023-03-27T19:26:49.339Z,19.11
2023-03-27T19:29:16.003Z,19.08
2023-03-27T19:31:42.523Z,19.07
2023-03-27T19:34:10.385Z,19.02
2023-03-27T19:36:36.959Z,19.05
2023-03-27T19:39:04.093Z,19.04
2023-03-27T19:41:31.842Z,19.03
2023-03-27T19:44:00.481Z,19.04
2023-03-27T19:46:28.633Z,19.01
2023-03-27T19:48:56.768Z,19.02
2023-03-27T19:51:25.166Z,19.02
2023-03-27T19:53:51.739Z,18.99
2023-03-27T19:56:20.005Z,19.01
2023-03-27T19:58:47.607Z,19.00
2023-03-27T20:01:15.390Z,18.97
2023-03-27T20:03:43.528Z,18.98
2023-03-27T20:06:14.730Z,18.96
2023-03-27T20:08:43.874Z,19.00
2023-03-27T20:11:14.421Z,18.98
2023-03-27T20:13:55.272Z,18.97
2023-03-27T20:16:26.044Z,18.98
2023-03-27T20:18:54.374Z,18.94
2023-03-27T20:21:22.957Z,18.94
2023-03-27T20:23:51.275Z,18.93
2023-03-27T20:26:18.193Z,18.93
2023-03-27T20:28:44.923Z,18.93
2023-03-27T20:31:11.497Z,18.91
2023-03-27T20:33:38.007Z,18.91
2023-03-27T20:36:04.729Z,18.87
2023-03-27T20:38:31.184Z,18.89
2023-03-27T20:40:59.121Z,18.93
2023-03-27T20:43:25.984Z,18.95
2023-03-27T20:45:53.548Z,18.91
2023-03-27T20:48:20.527Z,18.92
2023-03-27T20:50:49.067Z,18.91
2023-03-27T20:53:17.287Z,18.95
2023-03-27T20:55:57.033Z,18.94
2023-03-27T20:58:27.619Z,18.91
2023-03-27T21:00:54.880Z,18.93
2023-03-27T21:03:22.271Z,18.92
2023-03-27T21:05:49.070Z,18.93
2023-03-27T21:08:15.542Z,18.91
2023-03-27T21:10:42.256Z,18.93
2023-03-27T21:13:08.876Z,18.90
2023-03-27T21:15:36.690Z,18.93
2023-03-27T21:18:03.396Z,18.92
2023-03-27T21:20:29.915Z,18.94
2023-03-27T21:22:56.396Z,18.95
2023-03-27T21:25:23.067Z,18.91
2023-03-27T21:27:49.806Z,18.91
2023-03-27T21:30:16.703Z,18.92
2023-03-27T21:32:44.742Z,18.89
2023-03-27T21:35:11.596Z,18.91
2023-03-27T21:37:38.042Z,18.90
2023-03-27T21:40:05.447Z,18.90
2023-03-27T21:42:33.282Z,18.89
2023-03-27T21:44:59.858Z,18.84
2023-03-27T21:47:37.302Z,18.84
2023-03-27T21:50:13.611Z,18.83
2023-03-27T21:52:40.349Z,18.87
2023-03-27T21:55:07.258Z,18.88
2023-03-27T21:57:33.791Z,18.82
2023-03-27T22:00:00.263Z,18.79
2023-03-27T22:02:26.836Z,18.82
2023-03-27T22:04:53.353Z,18.81
2023-03-27T22:07:21.212Z,18.82
2023-03-27T22:09:47.716Z,18.81
2023-03-27T22:12:14.193Z,18.80
2023-03-27T22:14:40.652Z,18.80
2023-03-27T22:17:07.429Z,18.77
2023-03-27T22:19:33.885Z,18.80
2023-03-27T22:22:00.504Z,18.81
2023-03-27T22:24:28.933Z,18.78
2023-03-27T22:26:55.473Z,18.79
2023-03-27T22:29:21.912Z,18.77
2023-03-27T22:31:48.499Z,18.76
2023-03-27T22:34:15.103Z,18.79
2023-03-27T22:36:41.541Z,18.82
2023-03-27T22:39:08.051Z,18.81
2023-03-27T22:41:35.836Z,18.79
2023-03-27T22:44:02.340Z,18.77
2023-03-27T22:46:28.867Z,18.78
2023-03-27T22:48:56.484Z,18.76
2023-03-27T22:51:23.178Z,18.74
2023-03-27T22:53:49.784Z,18.77
2023-03-27T22:56:16.270Z,18.76
2023-03-27T22:58:44.274Z,18.73
2023-03-27T23:01:10.872Z,18.72
2023-03-27T23:03:37.756Z,18.73
2023-03-27T23:06:05.293Z,18.77
2023-03-27T23:08:32.134Z,18.76
2023-03-27T23:11:01.322Z,18.74
2023-03-27T23:13:30.603Z,18.76
2023-03-27T23:15:58.959Z,18.77
2023-03-27T23:18:25.908Z,18.75
2023-03-27T23:20:54.345Z,18.75
2023-03-27T23:23:20.926Z,18.77
2023-03-27T23:25:47.439Z,18.77
2023-03-27T23:28:13.922Z,18.76
2023-03-27T23:30:40.434Z,18.74
2023-03-27T23:33:08.255Z,18.75
2023-03-27T23:35:35.641Z,18.76
2023-03-27T23:38:02.264Z,18.72
2023-03-27T23:40:28.695Z,18.73
2023-03-27T23:42:55.321Z,18.73
2023-03-27T23:45:21.809Z,18.74
2023-03-27T23:47:48.308Z,18.73
2023-03-27T23:50:16.120Z,18.74
2023-03-27T23:52:42.684Z,18.75
2023-03-27T23:55:09.339Z,18.72
2023-03-27T23:57:35.832Z,18.72
